DGAA/ACC METAR and TAF weather

Enter ICAO airport designator
Station Type Date Time Source
DGAA METAR 2018/07/17 00:00 UTC NOAA

DGAA 170000Z 22008KT 9999 BKN010 25/24 Q1015 NOSIG


Station Type Date Time Source
DGAA Decoded METAR 2018/07/17 00:00 UTC NOAA

Accra, Ghana (DGAA) 05-36N 000-10W 69M
Jul 16, 2018 - 08:00 PM EDT / 2018.07.17 0000 UTC
Wind: from the SW (220 degrees) at 9 MPH (8 KT):0
Visibility: greater than 7 mile(s):0
Sky conditions: mostly cloudy
Temperature: 77 F (25 C)
Dew Point: 75 F (24 C)
Relative Humidity: 94%
Pressure (altimeter): 29.97 in. Hg (1015 hPa)
ob: DGAA 170000Z 22008KT 9999 BKN010 25/24 Q1015 NOSIG
cycle: 0

Station Type Date Time Source
DGAA TAF 2018/07/16 18:21 UTC NOAA

TAF DGAA 161700Z 1618/1724 20010KT 9999 BKN012 PROB30 1620/1700 6000 RA
BECMG 1700/1702 27005KT
BECMG 1704/1706 5000 BR
FM171000 19015KT 9999 BKN025


Example: see airport list